createdAt,value
2019-05-17T00:00:37.511Z,14.90
2019-05-17T00:03:07.179Z,15.01
2019-05-17T00:05:37.540Z,15.03
2019-05-17T00:08:07.709Z,15.04
2019-05-17T00:10:37.542Z,15.01
2019-05-17T00:13:11.760Z,14.80
2019-05-17T00:15:38.117Z,14.93
2019-05-17T00:18:07.242Z,14.99
2019-05-17T00:20:37.566Z,14.95
2019-05-17T00:23:07.287Z,15.02
2019-05-17T00:25:37.012Z,15.01
2019-05-17T00:28:07.412Z,14.90
2019-05-17T00:30:37.271Z,14.79
2019-05-17T00:33:07.749Z,14.84
2019-05-17T00:35:37.814Z,14.74
2019-05-17T00:38:07.168Z,14.72
2019-05-17T00:40:36.732Z,14.53
2019-05-17T00:43:06.919Z,14.64
2019-05-17T00:45:37.662Z,14.70
2019-05-17T00:48:07.108Z,14.68
2019-05-17T00:50:37.987Z,14.80
2019-05-17T00:53:07.565Z,14.90
2019-05-17T00:55:36.743Z,14.69
2019-05-17T00:58:09.169Z,14.59
2019-05-17T01:03:07.387Z,14.62
2019-05-17T01:05:37.135Z,14.45
2019-05-17T01:08:09.374Z,14.54
2019-05-17T01:10:38.464Z,14.43
2019-05-17T01:13:08.953Z,14.48
2019-05-17T01:15:38.084Z,14.45
2019-05-17T01:18:07.533Z,14.56
2019-05-17T01:20:37.356Z,14.48
2019-05-17T01:23:07.668Z,14.56
2019-05-17T01:25:37.449Z,14.52
2019-05-17T01:28:07.643Z,14.48
2019-05-17T01:30:37.573Z,14.59
2019-05-17T01:33:06.969Z,14.52
2019-05-17T01:35:37.398Z,14.59
2019-05-17T01:38:07.464Z,14.64
2019-05-17T01:40:37.432Z,14.51
2019-05-17T01:43:07.833Z,14.51
2019-05-17T01:45:37.130Z,14.59
2019-05-17T01:48:07.294Z,14.66
2019-05-17T01:50:37.534Z,14.70
2019-05-17T01:53:07.382Z,14.73
2019-05-17T01:55:37.426Z,14.60
2019-05-17T01:58:08.099Z,14.59
2019-05-17T02:00:37.823Z,14.63
2019-05-17T02:03:07.429Z,14.73
2019-05-17T02:05:37.916Z,14.73
2019-05-17T02:08:07.171Z,14.49
2019-05-17T02:10:37.567Z,14.14
2019-05-17T02:13:07.197Z,14.23
2019-05-17T02:15:37.892Z,14.39
2019-05-17T02:18:07.346Z,14.27
2019-05-17T02:20:37.261Z,14.09
2019-05-17T02:23:07.521Z,14.15
2019-05-17T02:25:38.042Z,14.06
2019-05-17T02:28:07.141Z,14.06
2019-05-17T02:30:36.269Z,14.22
2019-05-17T02:33:05.675Z,14.14
2019-05-17T02:35:34.783Z,14.10
2019-05-17T02:38:05.475Z,14.16
2019-05-17T02:40:35.917Z,14.16
2019-05-17T02:43:05.018Z,14.20
2019-05-17T02:45:34.147Z,14.28
2019-05-17T02:48:04.367Z,14.33
2019-05-17T02:50:33.614Z,14.37
2019-05-17T02:53:04.413Z,14.39
2019-05-17T02:55:33.945Z,14.30
2019-05-17T02:58:05.842Z,14.21
2019-05-17T03:00:35.053Z,14.31
2019-05-17T03:03:04.588Z,14.19
2019-05-17T03:05:34.206Z,14.06
2019-05-17T03:08:04.737Z,14.21
2019-05-17T03:10:34.342Z,14.19
2019-05-17T03:13:04.247Z,14.09
2019-05-17T03:15:34.430Z,14.18
2019-05-17T03:18:06.932Z,14.11
2019-05-17T03:20:36.100Z,14.19
2019-05-17T03:23:05.260Z,14.14
2019-05-17T03:25:34.646Z,14.16
2019-05-17T03:28:06.858Z,14.15
2019-05-17T03:30:37.330Z,14.08
2019-05-17T03:33:08.165Z,14.05
2019-05-17T03:35:38.747Z,14.06
2019-05-17T03:38:08.499Z,14.19
2019-05-17T03:41:06.150Z,14.16
2019-05-17T03:43:08.534Z,14.17
2019-05-17T03:45:37.994Z,14.09
2019-05-17T03:48:07.137Z,14.12
2019-05-17T03:50:36.250Z,14.20
2019-05-17T03:53:05.688Z,14.09
2019-05-17T03:55:34.777Z,14.12
2019-05-17T03:58:06.652Z,14.01
2019-05-17T04:00:36.063Z,13.92
2019-05-17T04:03:13.969Z,13.83
2019-05-17T04:05:43.270Z,14.02
2019-05-17T04:08:13.922Z,13.98
2019-05-17T04:10:43.272Z,14.05
2019-05-17T04:13:13.006Z,14.09
2019-05-17T04:15:53.032Z,14.04
2019-05-17T04:18:23.764Z,13.98
2019-05-17T04:20:53.158Z,13.94
2019-05-17T04:23:23.175Z,13.88
2019-05-17T04:25:53.379Z,13.82
2019-05-17T04:28:23.125Z,13.87
2019-05-17T04:30:52.927Z,14.01
2019-05-17T04:33:23.213Z,14.01
2019-05-17T04:35:54.133Z,14.00
2019-05-17T04:38:24.076Z,14.10
2019-05-17T04:40:53.887Z,13.89
2019-05-17T04:43:23.467Z,13.97
2019-05-17T04:45:53.802Z,14.00
2019-05-17T04:48:23.444Z,14.07
2019-05-17T04:50:53.711Z,13.87
2019-05-17T04:53:24.531Z,13.89
2019-05-17T04:55:54.295Z,13.87
2019-05-17T04:58:23.556Z,13.97
2019-05-17T05:00:53.844Z,14.26
2019-05-17T05:03:23.391Z,14.21
2019-05-17T05:05:53.454Z,14.10
2019-05-17T05:08:23.248Z,14.00
2019-05-17T05:10:53.420Z,13.92
2019-05-17T05:13:24.382Z,14.12
2019-05-17T05:15:53.752Z,13.91
2019-05-17T05:18:24.784Z,14.07
2019-05-17T05:20:54.833Z,14.13
2019-05-17T05:23:24.232Z,14.06
2019-05-17T05:25:53.397Z,14.02
2019-05-17T05:28:22.887Z,14.16
2019-05-17T05:30:52.713Z,14.19
2019-05-17T05:33:22.540Z,14.13
2019-05-17T05:35:52.114Z,14.24
2019-05-17T05:38:21.753Z,14.22
2019-05-17T05:40:52.141Z,14.10
2019-05-17T05:43:22.585Z,14.33
2019-05-17T05:45:53.590Z,14.43
2019-05-17T05:48:23.283Z,14.55
2019-05-17T05:50:52.754Z,14.54
2019-05-17T05:53:22.013Z,14.47
2019-05-17T05:55:51.854Z,14.15
2019-05-17T05:58:23.994Z,14.39
2019-05-17T06:00:53.195Z,14.47
2019-05-17T06:03:22.632Z,14.36
2019-05-17T06:05:52.495Z,14.58
2019-05-17T06:08:22.795Z,14.66
2019-05-17T06:10:53.092Z,14.66
2019-05-17T06:13:22.818Z,14.71
2019-05-17T06:15:51.942Z,14.91
2019-05-17T06:18:22.680Z,14.70
2019-05-17T06:20:52.499Z,14.70
2019-05-17T06:23:23.610Z,14.78
2019-05-17T06:25:52.955Z,14.81
2019-05-17T06:28:23.207Z,14.83
2019-05-17T06:30:53.905Z,15.02
2019-05-17T06:33:30.544Z,15.13
2019-05-17T06:35:54.308Z,15.19
2019-05-17T06:38:23.577Z,15.29
2019-05-17T06:40:52.744Z,15.38
2019-05-17T06:43:22.153Z,15.30
2019-05-17T06:45:52.222Z,15.46
2019-05-17T06:48:22.525Z,15.31
2019-05-17T06:50:55.386Z,15.16
2019-05-17T06:53:25.318Z,15.59
2019-05-17T06:55:54.789Z,15.81
2019-05-17T06:58:24.221Z,15.66
2019-05-17T07:00:53.520Z,15.71
2019-05-17T07:03:22.658Z,15.77
2019-05-17T07:05:53.873Z,15.89
2019-05-17T07:08:22.983Z,15.93
2019-05-17T07:10:52.435Z,15.85
2019-05-17T07:13:21.568Z,15.94
2019-05-17T07:15:51.076Z,15.98
2019-05-17T07:18:20.715Z,15.81
2019-05-17T07:20:50.296Z,15.89
2019-05-17T07:23:19.897Z,15.91
2019-05-17T07:25:50.548Z,15.90
2019-05-17T07:28:21.826Z,15.92
2019-05-17T07:30:51.026Z,16.01
2019-05-17T07:33:20.682Z,16.13
2019-05-17T07:35:50.278Z,16.00
2019-05-17T07:38:19.900Z,15.77
2019-05-17T07:40:50.193Z,15.71
2019-05-17T07:43:20.779Z,15.63
2019-05-17T07:45:50.067Z,15.88
2019-05-17T07:48:20.115Z,15.83
2019-05-17T07:50:50.390Z,16.03
2019-05-17T07:53:20.340Z,16.01
2019-05-17T07:55:50.544Z,16.14
2019-05-17T07:58:21.312Z,16.23
2019-05-17T08:00:51.372Z,16.22
2019-05-17T08:03:22.019Z,16.23
2019-05-17T08:05:51.736Z,16.36
2019-05-17T08:08:20.981Z,16.33
2019-05-17T08:10:51.162Z,16.45
2019-05-17T08:13:29.103Z,16.42
2019-05-17T08:15:51.348Z,16.53
2019-05-17T08:18:20.792Z,16.58
2019-05-17T08:20:50.134Z,16.60
2019-05-17T08:23:20.110Z,16.51
2019-05-17T08:25:55.670Z,16.56
2019-05-17T08:28:21.710Z,16.63
2019-05-17T08:30:50.866Z,16.76
2019-05-17T08:33:20.528Z,16.85
2019-05-17T08:35:49.679Z,16.96
2019-05-17T08:38:19.747Z,16.81
2019-05-17T08:40:50.916Z,16.96
2019-05-17T08:43:21.301Z,17.08
2019-05-17T08:45:50.626Z,17.11
2019-05-17T08:48:20.736Z,17.21
2019-05-17T08:50:50.018Z,17.17
2019-05-17T08:53:19.824Z,17.27
2019-05-17T08:55:50.197Z,17.38
2019-05-17T08:58:21.629Z,17.37
2019-05-17T09:00:50.608Z,17.54
2019-05-17T09:03:20.116Z,17.74
2019-05-17T09:05:52.700Z,17.88
2019-05-17T09:08:20.519Z,17.91
2019-05-17T09:10:50.610Z,17.76
2019-05-17T09:13:19.811Z,17.89
2019-05-17T09:15:49.417Z,17.93
2019-05-17T09:18:20.605Z,18.06
2019-05-17T09:20:49.922Z,18.07
2019-05-17T09:23:19.702Z,18.17
2019-05-17T09:25:50.135Z,18.19
2019-05-17T09:28:20.514Z,18.32
2019-05-17T09:30:50.882Z,18.37
2019-05-17T09:33:20.353Z,18.43
2019-05-17T09:35:50.136Z,18.70
2019-05-17T09:38:20.363Z,18.91
2019-05-17T09:40:50.391Z,19.00
2019-05-17T09:43:20.714Z,19.04
2019-05-17T09:45:50.765Z,19.12
2019-05-17T09:48:20.488Z,19.14
2019-05-17T09:50:50.430Z,19.21
2019-05-17T09:53:20.275Z,19.14
2019-05-17T09:55:49.969Z,19.37
2019-05-17T09:58:21.658Z,19.38
2019-05-17T10:00:49.900Z,19.50
2019-05-17T10:03:23.758Z,19.58
2019-05-17T10:05:50.164Z,19.51
2019-05-17T10:08:19.702Z,19.65
2019-05-17T10:11:04.192Z,19.79
2019-05-17T10:13:20.264Z,19.68
2019-05-17T10:15:50.034Z,19.89
2019-05-17T10:18:20.121Z,20.05
2019-05-17T10:20:50.668Z,20.05
2019-05-17T10:23:19.928Z,19.63
2019-05-17T10:25:49.047Z,19.73
2019-05-17T10:28:20.356Z,19.77
2019-05-17T10:30:52.211Z,20.10
2019-05-17T10:33:21.326Z,20.28
2019-05-17T10:35:50.422Z,20.39
2019-05-17T10:38:19.847Z,20.43
2019-05-17T10:40:50.121Z,20.49
2019-05-17T10:43:22.482Z,20.63
2019-05-17T10:45:51.861Z,20.67
2019-05-17T10:48:21.349Z,20.91
2019-05-17T10:50:50.598Z,21.02
2019-05-17T10:53:20.549Z,20.92
2019-05-17T10:55:49.953Z,21.16
2019-05-17T10:58:21.230Z,21.28
2019-05-17T11:00:50.367Z,21.48
2019-05-17T11:03:20.335Z,21.47
2019-05-17T11:05:50.291Z,21.46
2019-05-17T11:08:19.962Z,21.72
2019-05-17T11:10:50.090Z,21.56
2019-05-17T11:13:21.964Z,21.59
2019-05-17T11:15:51.380Z,21.57
2019-05-17T11:18:20.799Z,21.45
2019-05-17T11:20:51.148Z,21.44
2019-05-17T11:23:20.655Z,21.27
2019-05-17T11:25:50.042Z,21.44
2019-05-17T11:28:19.200Z,21.68
2019-05-17T11:30:48.610Z,21.59
2019-05-17T11:33:17.857Z,21.69
2019-05-17T11:35:47.844Z,22.19
2019-05-17T11:38:16.967Z,22.16
2019-05-17T11:40:46.115Z,22.30
2019-05-17T11:43:15.501Z,22.59
2019-05-17T11:45:44.615Z,22.73
2019-05-17T11:48:13.790Z,22.99
2019-05-17T11:50:43.160Z,23.42
2019-05-17T11:53:12.402Z,23.67
2019-05-17T11:55:41.634Z,23.69
2019-05-17T11:58:11.029Z,24.10
2019-05-17T12:00:40.139Z,24.44
2019-05-17T12:03:09.369Z,24.45
2019-05-17T12:05:38.777Z,24.80
2019-05-17T12:08:08.777Z,24.95
2019-05-17T12:10:38.195Z,24.81
2019-05-17T12:13:07.590Z,24.30
2019-05-17T12:15:45.083Z,24.58
2019-05-17T12:18:07.532Z,24.42
2019-05-17T12:20:38.419Z,24.82
2019-05-17T12:23:07.546Z,24.85
2019-05-17T12:25:36.710Z,25.11
2019-05-17T12:28:10.251Z,25.06
2019-05-17T12:30:39.424Z,25.11
2019-05-17T12:33:08.608Z,25.46
2019-05-17T12:35:38.023Z,25.79
2019-05-17T12:38:08.001Z,26.06
2019-05-17T12:40:37.154Z,26.33
2019-05-17T12:43:06.713Z,26.16
2019-05-17T12:45:35.792Z,25.90
2019-05-17T12:48:05.860Z,25.98
2019-05-17T12:50:35.390Z,26.59
2019-05-17T12:53:04.523Z,26.57
2019-05-17T12:55:33.674Z,27.00
2019-05-17T12:58:04.450Z,27.10
2019-05-17T13:00:33.588Z,27.07
2019-05-17T13:03:02.826Z,27.88
2019-05-17T13:05:32.218Z,28.11
2019-05-17T13:08:02.781Z,28.36
2019-05-17T13:10:31.841Z,27.89
2019-05-17T13:13:01.468Z,28.61
2019-05-17T13:15:30.573Z,28.77
2019-05-17T13:17:59.717Z,28.90
2019-05-17T13:20:29.166Z,28.56
2019-05-17T13:22:58.274Z,28.57
2019-05-17T13:25:27.402Z,29.00
2019-05-17T13:27:57.802Z,28.94
2019-05-17T13:30:27.376Z,28.62
2019-05-17T13:32:56.502Z,29.08
2019-05-17T13:35:25.890Z,29.31
2019-05-17T13:37:54.987Z,29.00
2019-05-17T13:40:24.231Z,29.91
2019-05-17T13:42:53.627Z,30.64
2019-05-17T13:45:22.769Z,30.99
2019-05-17T13:47:51.917Z,29.99
2019-05-17T13:50:21.355Z,30.68
2019-05-17T13:52:51.267Z,30.60
2019-05-17T13:55:20.386Z,31.29
2019-05-17T13:57:50.696Z,31.13
2019-05-17T14:00:20.058Z,32.01
2019-05-17T14:02:49.174Z,31.16
2019-05-17T14:05:18.571Z,31.95
2019-05-17T14:07:47.759Z,32.01
2019-05-17T14:10:26.730Z,32.26
2019-05-17T14:12:48.503Z,32.44
2019-05-17T14:15:19.929Z,33.33
2019-05-17T14:17:49.235Z,34.12
2019-05-17T14:20:18.822Z,35.35
2019-05-17T14:22:48.018Z,35.42
2019-05-17T14:25:18.403Z,35.30
2019-05-17T14:27:47.847Z,35.40
2019-05-17T14:30:18.353Z,35.46
2019-05-17T14:32:51.082Z,35.51
2019-05-17T14:35:22.378Z,36.08
2019-05-17T14:37:52.060Z,36.35
2019-05-17T14:40:21.497Z,36.13
2019-05-17T14:42:52.610Z,34.73
2019-05-17T14:45:22.455Z,34.46
2019-05-17T14:47:54.694Z,33.95
2019-05-17T14:50:24.286Z,35.62
2019-05-17T14:52:53.503Z,34.89
2019-05-17T14:55:22.798Z,35.26
2019-05-17T14:57:52.425Z,34.67
2019-05-17T15:00:23.454Z,34.46
2019-05-17T15:02:53.802Z,33.78
2019-05-17T15:05:24.038Z,32.93
2019-05-17T15:07:54.933Z,34.71
2019-05-17T15:10:24.454Z,33.71
2019-05-17T15:12:54.256Z,32.81
2019-05-17T15:15:26.230Z,33.55
2019-05-17T15:17:55.702Z,34.18
2019-05-17T15:20:25.133Z,35.08
2019-05-17T15:22:54.884Z,35.02
2019-05-17T15:25:24.688Z,35.75
2019-05-17T15:27:54.173Z,35.09
2019-05-17T15:30:24.553Z,35.90
2019-05-17T15:32:53.807Z,36.81
2019-05-17T15:35:23.018Z,36.55
2019-05-17T15:37:52.454Z,37.80
2019-05-17T15:40:22.976Z,36.41
2019-05-17T15:42:52.115Z,33.64
2019-05-17T15:45:22.418Z,33.93
2019-05-17T15:47:51.545Z,33.59
2019-05-17T15:50:20.955Z,31.21
2019-05-17T15:52:50.970Z,31.57
2019-05-17T15:55:20.450Z,30.89
2019-05-17T15:57:55.026Z,31.14
2019-05-17T16:00:25.227Z,30.28
2019-05-17T16:02:54.342Z,30.48
2019-05-17T16:05:23.607Z,29.66
2019-05-17T16:07:53.056Z,29.63
2019-05-17T16:10:22.174Z,28.91
2019-05-17T16:13:01.625Z,29.09
2019-05-17T16:15:22.142Z,27.58
2019-05-17T16:17:51.262Z,28.17
2019-05-17T16:20:20.661Z,27.99
2019-05-17T16:22:51.815Z,27.64
2019-05-17T16:25:20.972Z,27.49
2019-05-17T16:27:50.380Z,27.41
2019-05-17T16:30:22.431Z,27.30
2019-05-17T16:32:51.584Z,27.31
2019-05-17T16:35:21.058Z,27.25
2019-05-17T16:37:50.327Z,27.23
2019-05-17T16:40:19.525Z,27.11
2019-05-17T16:42:48.976Z,27.03
2019-05-17T16:45:19.723Z,26.73
2019-05-17T16:47:49.022Z,26.79
2019-05-17T16:50:18.938Z,26.85
2019-05-17T16:52:48.181Z,27.06
2019-05-17T16:55:17.421Z,27.09
2019-05-17T16:57:47.128Z,26.68
2019-05-17T17:00:27.378Z,26.88
2019-05-17T17:02:57.063Z,26.96
2019-05-17T17:05:26.210Z,27.22
2019-05-17T17:07:55.397Z,27.21
2019-05-17T17:10:24.957Z,27.03
2019-05-17T17:12:54.115Z,26.82
2019-05-17T17:15:23.336Z,26.01
2019-05-17T17:17:52.857Z,26.19
2019-05-17T17:20:22.537Z,26.31
2019-05-17T17:22:51.803Z,26.18
2019-05-17T17:25:22.175Z,25.92
2019-05-17T17:27:51.393Z,25.82
2019-05-17T17:30:20.645Z,25.82
2019-05-17T17:32:50.028Z,25.81
2019-05-17T17:35:19.963Z,25.87
2019-05-17T17:37:49.106Z,25.77
2019-05-17T17:40:21.685Z,25.87
2019-05-17T17:42:50.823Z,25.87
2019-05-17T17:45:21.556Z,25.97
2019-05-17T17:47:50.923Z,25.92
2019-05-17T17:50:23.682Z,26.03
2019-05-17T17:52:53.412Z,25.99
2019-05-17T17:55:22.798Z,25.96
2019-05-17T17:57:52.041Z,25.98
2019-05-17T18:00:21.569Z,25.95
2019-05-17T18:02:50.862Z,25.84
2019-05-17T18:05:20.021Z,25.32
2019-05-17T18:07:49.413Z,25.47
2019-05-17T18:10:29.560Z,25.28
2019-05-17T18:12:59.236Z,25.54
2019-05-17T18:15:39.511Z,25.16
2019-05-17T18:18:09.064Z,25.22
2019-05-17T18:20:38.386Z,25.16
2019-05-17T18:23:07.601Z,25.28
2019-05-17T18:25:38.115Z,25.33
2019-05-17T18:28:07.615Z,24.85
2019-05-17T18:30:36.928Z,24.48
2019-05-17T18:33:06.350Z,24.21
2019-05-17T18:35:35.928Z,23.94
2019-05-17T18:38:08.312Z,23.73
2019-05-17T18:40:37.595Z,23.56
2019-05-17T18:43:06.794Z,23.56
2019-05-17T18:48:10.453Z,22.89
2019-05-17T18:50:40.548Z,22.75
2019-05-17T18:53:16.535Z,22.72
2019-05-17T18:55:40.825Z,22.81
2019-05-17T18:58:10.120Z,22.84
2019-05-17T19:00:39.883Z,22.70
2019-05-17T19:03:09.225Z,22.37
2019-05-17T19:05:38.479Z,22.59
2019-05-17T19:08:08.072Z,22.63
2019-05-17T19:10:40.803Z,22.36
2019-05-17T19:13:11.284Z,22.31
2019-05-17T19:15:43.072Z,22.19
2019-05-17T19:18:12.713Z,22.36
2019-05-17T19:20:42.167Z,22.24
2019-05-17T19:23:11.585Z,22.12
2019-05-17T19:25:40.750Z,21.63
2019-05-17T19:28:09.881Z,21.76
2019-05-17T19:30:39.348Z,21.71
2019-05-17T19:33:09.036Z,21.60
2019-05-17T19:35:38.183Z,21.63
2019-05-17T19:38:07.638Z,21.85
2019-05-17T19:40:37.428Z,21.93
2019-05-17T19:43:10.561Z,21.90
2019-05-17T19:45:51.446Z,22.11
2019-05-17T19:48:21.386Z,21.78
2019-05-17T19:50:52.532Z,21.71
2019-05-17T19:53:26.341Z,21.29
2019-05-17T19:55:57.586Z,21.54
2019-05-17T19:58:30.622Z,21.35
2019-05-17T20:01:00.122Z,21.18
2019-05-17T20:03:30.590Z,21.30
2019-05-17T20:05:59.816Z,21.39
2019-05-17T20:08:29.203Z,21.46
2019-05-17T20:10:59.399Z,21.03
2019-05-17T20:13:30.076Z,21.18
2019-05-17T20:15:59.408Z,21.09
2019-05-17T20:18:34.655Z,21.12
2019-05-17T20:21:04.142Z,21.27
2019-05-17T20:23:34.685Z,21.37
2019-05-17T20:26:07.735Z,21.52
2019-05-17T20:28:37.061Z,21.73
2019-05-17T20:31:06.200Z,21.63
2019-05-17T20:33:36.043Z,21.50
2019-05-17T20:36:06.591Z,21.56
2019-05-17T20:38:35.854Z,21.59
2019-05-17T20:41:05.429Z,21.30
2019-05-17T20:43:34.591Z,21.18
2019-05-17T20:46:05.620Z,21.38
2019-05-17T20:48:35.582Z,21.44
2019-05-17T20:51:04.932Z,21.40
2019-05-17T20:53:34.525Z,21.44
2019-05-17T20:56:06.761Z,21.46
2019-05-17T20:58:36.423Z,21.32
2019-05-17T21:01:05.819Z,21.48
2019-05-17T21:03:38.127Z,21.42
2019-05-17T21:06:08.183Z,21.57
2019-05-17T21:08:46.062Z,21.03
2019-05-17T21:11:09.517Z,21.04
2019-05-17T21:13:39.706Z,21.07
2019-05-17T21:16:09.071Z,21.15
2019-05-17T21:18:38.234Z,21.06
2019-05-17T21:21:07.434Z,21.05
2019-05-17T21:23:36.979Z,21.06
2019-05-17T21:26:08.925Z,20.84
2019-05-17T21:28:38.977Z,20.95
2019-05-17T21:31:08.772Z,20.66
2019-05-17T21:33:39.757Z,20.52
2019-05-17T21:36:11.504Z,20.21
2019-05-17T21:38:41.181Z,19.99
2019-05-17T21:41:10.587Z,20.24
2019-05-17T21:43:41.480Z,19.92
2019-05-17T21:46:11.181Z,20.35
2019-05-17T21:48:40.369Z,19.80
2019-05-17T21:51:09.827Z,19.99
2019-05-17T21:53:39.199Z,19.46
2019-05-17T21:56:08.332Z,19.68
2019-05-17T21:58:38.270Z,19.39
2019-05-17T22:01:15.693Z,19.27
2019-05-17T22:03:47.078Z,18.94
2019-05-17T22:06:16.795Z,18.79
2019-05-17T22:08:47.984Z,18.64
2019-05-17T22:11:17.064Z,18.65
2019-05-17T22:13:46.580Z,18.62
2019-05-17T22:16:19.716Z,18.68
2019-05-17T22:18:46.603Z,18.76
2019-05-17T22:21:17.311Z,18.78
2019-05-17T22:23:46.405Z,18.99
2019-05-17T22:26:20.551Z,18.98
2019-05-17T22:28:49.698Z,18.87
2019-05-17T22:31:18.821Z,19.03
2019-05-17T22:33:47.912Z,19.26
2019-05-17T22:36:17.311Z,19.16
2019-05-17T22:38:46.419Z,19.21
2019-05-17T22:41:15.516Z,19.38
2019-05-17T22:43:44.620Z,19.07
2019-05-17T22:46:13.771Z,18.95
2019-05-17T22:48:44.459Z,18.92
2019-05-17T22:51:13.908Z,18.72
2019-05-17T22:53:43.044Z,18.86
2019-05-17T22:56:12.170Z,18.76
2019-05-17T22:58:41.292Z,18.56
2019-05-17T23:01:10.494Z,18.41
2019-05-17T23:03:39.583Z,18.21
2019-05-17T23:06:10.003Z,18.13
2019-05-17T23:08:39.098Z,18.24
2019-05-17T23:11:08.197Z,18.63
2019-05-17T23:13:37.656Z,18.41
2019-05-17T23:16:13.089Z,18.24
2019-05-17T23:18:44.606Z,18.48
2019-05-17T23:21:14.234Z,18.28
2019-05-17T23:23:43.334Z,18.58
2019-05-17T23:26:12.413Z,18.38
2019-05-17T23:28:41.628Z,18.42
2019-05-17T23:31:10.777Z,18.02
2019-05-17T23:33:39.887Z,17.55
2019-05-17T23:36:09.338Z,17.74
2019-05-17T23:38:38.447Z,17.85
2019-05-17T23:41:07.558Z,18.08
2019-05-17T23:43:36.675Z,17.99
2019-05-17T23:46:08.896Z,18.11
2019-05-17T23:48:38.003Z,17.89
2019-05-17T23:51:07.407Z,17.86
2019-05-17T23:53:36.513Z,17.61
2019-05-17T23:56:11.274Z,17.93
2019-05-17T23:58:40.614Z,17.95
